Time;durP1;ratioP1;P1;durP2;ratioP2;P2;SDS_P1;SDS_P2;PMS_P1;PMS_P2;Temp;Humidity;BMP_temperature;BMP_pressure;BME280_temperature;BME280_humidity;BME280_pressure;Samples;Min_cycle;Max_cycle;Signal;HPM_P1;HPM_P2
2022/04/15 00:00:27;;;;;;;9.52;4.72;;;;;;;7.96;88.74;100612.78;10289956;28;20066;-74
2022/04/15 00:05:37;;;;;;;7.85;4.50;;;;;;;8.17;88.99;100643.47;10303299;28;20051;-73
2022/04/15 00:10:40;;;;;;;5.72;4.25;;;;;;;8.26;89.05;100652.38;10304464;28;20146;-75
2022/04/15 00:15:41;;;;;;;5.63;4.57;;;;;;;7.70;88.75;100562.31;10301425;28;20133;-73
2022/04/15 00:20:42;;;;;;;5.75;4.45;;;;;;;7.95;89.71;100594.38;10296673;28;20047;-73
2022/04/15 00:25:43;;;;;;;13.05;4.97;;;;;;;8.44;89.95;100664.72;10296613;28;20047;-73
2022/04/15 00:30:44;;;;;;;7.32;4.82;;;;;;;8.51;90.13;100678.19;10297174;28;20042;-74
2022/04/15 00:35:45;;;;;;;14.30;5.53;;;;;;;8.32;90.05;100636.72;10297619;28;20125;-73
2022/04/15 00:40:45;;;;;;;6.40;4.35;;;;;;;7.92;90.37;100570.88;10296540;28;20137;-75
2022/04/15 00:45:47;;;;;;;5.78;4.57;;;;;;;8.36;90.64;100639.91;10296986;28;20043;-73
2022/04/15 00:50:47;;;;;;;7.60;4.18;;;;;;;8.43;90.56;100654.25;10296669;28;20501;-73
2022/04/15 00:55:51;;;;;;;5.70;4.30;;;;;;;8.66;91.12;100689.13;10296056;28;20046;-74
2022/04/15 01:00:55;;;;;;;5.30;4.40;;;;;;;8.72;91.36;100711.56;10295629;28;20066;-73
2022/04/15 01:05:58;;;;;;;5.45;4.13;;;;;;;8.62;91.65;100680.66;10296205;28;20046;-73
2022/04/15 01:11:03;;;;;;;6.03;4.25;;;;;;;8.12;91.74;100595.44;10295543;28;20054;-73
2022/04/15 01:16:05;;;;;;;6.07;4.05;;;;;;;8.84;90.93;100694.47;10295341;28;20047;-74
2022/04/15 01:21:07;;;;;;;8.52;4.78;;;;;;;8.24;90.22;100584.50;10295254;28;20162;-74
2022/04/15 01:26:08;;;;;;;6.70;4.10;;;;;;;8.95;90.23;100707.53;10295108;28;20039;-73
2022/04/15 01:31:09;;;;;;;4.93;3.85;;;;;;;8.30;90.02;100619.31;10294528;28;20039;-74
2022/04/15 01:36:10;;;;;;;6.72;4.10;;;;;;;8.18;90.50;100605.44;10293896;28;20074;-73
2022/04/15 01:41:11;;;;;;;5.85;4.15;;;;;;;8.54;90.75;100677.06;10277229;28;20154;-74
2022/04/15 01:46:12;;;;;;;5.70;4.40;;;;;;;8.06;90.83;100610.09;10293774;28;20118;-73
2022/04/15 01:51:12;;;;;;;41.30;29.20;;;;;;;8.65;90.81;100690.94;10276035;28;20101;-74
2022/04/15 01:56:13;;;;;;;11.30;8.13;;;;;;;8.23;90.58;100609.31;10293804;28;20062;-74
2022/04/15 02:01:14;;;;;;;12.88;7.18;;;;;;;8.36;90.49;100631.97;10293973;28;20418;-73
2022/04/15 02:06:15;;;;;;;7.47;5.80;;;;;;;8.89;90.83;100718.72;10294081;28;20047;-73
2022/04/15 02:11:15;;;;;;;9.90;5.10;;;;;;;8.44;90.64;100656.75;10292400;28;20038;-73
2022/04/15 02:16:16;;;;;;;10.43;5.00;;;;;;;8.38;90.75;100652.06;10275284;28;20039;-73
2022/04/15 02:21:17;;;;;;;10.13;4.00;;;;;;;8.00;90.77;100594.78;10292289;28;20490;-73
2022/04/15 02:26:18;;;;;;;6.20;4.35;;;;;;;7.83;90.86;100580.50;10292382;28;20034;-73
2022/04/15 02:31:19;;;;;;;7.32;4.50;;;;;;;8.82;91.48;100728.22;10292265;28;20432;-71
2022/04/15 02:36:19;;;;;;;10.68;6.40;;;;;;;7.97;91.46;100579.22;10272870;28;20046;-74
2022/04/15 02:41:20;;;;;;;11.43;6.72;;;;;;;8.26;91.03;100624.09;10290383;28;20429;-74
2022/04/15 02:46:21;;;;;;;12.27;6.40;;;;;;;8.28;91.17;100615.97;10274942;28;20093;-74
2022/04/15 02:51:22;;;;;;;14.05;6.20;;;;;;;7.82;91.31;100541.00;10289586;28;20035;-73
2022/04/15 02:56:23;;;;;;;12.95;5.45;;;;;;;9.05;91.18;100742.75;10290381;28;20069;-74
2022/04/15 03:01:23;;;;;;;10.75;5.30;;;;;;;8.76;91.55;100707.63;10290118;28;20069;-74
2022/04/15 03:06:24;;;;;;;12.18;5.43;;;;;;;9.04;91.57;100764.94;10278223;28;20039;-76
2022/04/15 03:11:25;;;;;;;6.15;4.68;;;;;;;8.97;91.68;100752.41;10289210;28;20054;-76
2022/04/15 03:16:26;;;;;;;7.95;5.35;;;;;;;8.81;92.01;100742.47;10281846;28;20125;-75
2022/04/15 03:21:27;;;;;;;8.95;4.93;;;;;;;8.91;92.39;100783.84;10290497;28;20053;-76
2022/04/15 03:26:28;;;;;;;7.35;4.82;;;;;;;7.78;92.16;100591.53;10248726;29;20126;-76
2022/04/15 03:31:29;;;;;;;5.70;4.70;;;;;;;7.88;92.37;100601.25;10252198;29;20129;-75
2022/04/15 03:36:29;;;;;;;7.88;4.30;;;;;;;8.50;92.18;100684.47;10266074;28;20039;-76
2022/04/15 03:41:30;;;;;;;9.02;4.53;;;;;;;8.03;92.10;100602.44;10289646;28;20097;-75
2022/04/15 03:46:31;;;;;;;5.40;4.15;;;;;;;7.78;92.17;100564.25;10296991;28;20093;-75
2022/04/15 03:51:32;;;;;;;9.55;5.32;;;;;;;8.90;92.27;100752.16;10310164;28;20046;-75
2022/04/15 03:56:33;;;;;;;7.00;4.35;;;;;;;8.90;92.05;100742.41;10309723;28;20074;-76
2022/04/15 04:01:34;;;;;;;6.45;4.57;;;;;;;8.41;92.11;100669.47;10326718;28;20477;-76
2022/04/15 04:06:35;;;;;;;7.32;5.00;;;;;;;9.35;91.90;100823.75;10337688;28;20073;-75
2022/04/15 04:11:36;;;;;;;6.63;4.88;;;;;;;9.09;91.69;100778.59;10338210;28;20069;-76
2022/04/15 04:16:36;;;;;;;6.57;4.85;;;;;;;8.72;91.31;100724.78;10338294;28;20096;-76
2022/04/15 04:21:37;;;;;;;5.22;4.72;;;;;;;9.36;91.44;100828.09;10328552;28;20037;-76
2022/04/15 04:26:38;;;;;;;6.22;5.05;;;;;;;8.54;91.39;100701.72;10302557;28;20104;-76
2022/04/15 04:31:39;;;;;;;6.57;5.00;;;;;;;9.13;92.01;100795.84;10278218;28;20113;-76
2022/04/15 04:36:40;;;;;;;12.13;5.15;;;;;;;9.02;92.43;100777.47;10295661;28;20043;-75
2022/04/15 04:41:40;;;;;;;5.45;4.30;;;;;;;9.15;92.44;100779.78;10295227;28;20046;-77
2022/04/15 04:46:41;;;;;;;6.22;4.90;;;;;;;9.68;92.46;100831.25;10285227;28;20539;-77
2022/04/15 04:51:42;;;;;;;5.43;4.57;;;;;;;9.75;92.66;100832.31;10259827;28;20035;-76
2022/04/15 04:56:44;;;;;;;5.22;4.15;;;;;;;9.54;92.04;100769.78;10248900;29;20043;-77
2022/04/15 05:01:44;;;;;;;5.13;4.05;;;;;;;10.12;91.09;100844.59;10291140;28;20106;-77
2022/04/15 05:06:45;;;;;;;4.65;3.83;;;;;;;9.78;90.54;100769.19;10294054;28;20094;-76
2022/04/15 05:11:46;;;;;;;4.15;3.17;;;;;;;9.94;89.89;100784.41;10295741;28;20045;-75
2022/04/15 05:16:47;;;;;;;8.88;4.10;;;;;;;10.58;89.40;100874.53;10295727;28;20047;-75
2022/04/15 05:21:49;;;;;;;5.75;4.18;;;;;;;10.62;89.23;100878.53;10294781;28;20503;-75
2022/04/15 05:26:49;;;;;;;7.55;4.00;;;;;;;10.32;89.64;100832.88;10295056;28;20134;-76
2022/04/15 05:31:50;;;;;;;5.70;4.28;;;;;;;10.58;90.14;100907.25;10276815;28;20150;-76
2022/04/15 05:36:51;;;;;;;4.88;3.33;;;;;;;9.97;89.71;100817.78;10295114;28;20043;-76
2022/04/15 05:41:52;;;;;;;3.60;2.90;;;;;;;10.31;90.01;100881.63;10294230;28;20109;-76
2022/04/15 05:46:52;;;;;;;4.43;3.20;;;;;;;10.33;89.70;100900.09;10294266;28;20402;-76
2022/04/15 05:51:53;;;;;;;4.65;2.95;;;;;;;9.63;89.11;100765.38;10294403;28;20129;-75
2022/04/15 05:56:54;;;;;;;4.38;2.75;;;;;;;10.30;88.17;100845.44;10293205;28;20042;-75
2022/04/15 06:01:54;;;;;;;4.70;2.90;;;;;;;9.35;87.73;100655.91;10293447;28;20059;-75
2022/04/15 06:06:55;;;;;;;5.28;2.53;;;;;;;10.92;87.15;100883.41;10293440;28;20392;-75
2022/04/15 06:11:56;;;;;;;4.30;2.63;;;;;;;10.37;86.58;100752.72;10293266;28;20043;-77
2022/04/15 06:16:57;;;;;;;5.97;2.53;;;;;;;10.24;85.03;100705.31;10291828;28;20054;-75
2022/04/15 06:21:57;;;;;;;5.82;2.42;;;;;;;11.02;84.33;100850.56;10293428;28;20047;-74
2022/04/15 06:26:58;;;;;;;5.28;2.30;;;;;;;10.79;83.69;100816.53;10292638;28;20050;-74
2022/04/15 06:31:59;;;;;;;4.03;2.45;;;;;;;11.31;83.16;100898.09;10292199;28;20039;-76
2022/04/15 06:37:00;;;;;;;4.60;2.33;;;;;;;11.24;82.60;100899.69;10292451;28;20050;-74
2022/04/15 06:42:00;;;;;;;4.47;2.40;;;;;;;10.99;82.50;100846.41;10292717;28;20133;-75
2022/04/15 06:47:01;;;;;;;3.38;2.22;;;;;;;11.34;82.48;100884.47;10291555;28;20046;-75
2022/04/15 06:52:03;;;;;;;5.70;2.47;;;;;;;11.43;81.41;100868.38;10291343;28;20426;-75
2022/04/15 06:57:04;;;;;;;4.32;2.40;;;;;;;11.98;80.84;100898.16;10291747;28;20509;-76
2022/04/15 07:02:05;;;;;;;4.15;2.60;;;;;;;11.79;79.45;100809.59;10291916;28;20410;-75
2022/04/15 07:07:06;;;;;;;5.20;2.55;;;;;;;12.53;78.38;100895.72;10291033;28;20074;-74
2022/04/15 07:12:07;;;;;;;4.53;2.55;;;;;;;12.47;76.92;100898.19;10290998;28;20063;-74
2022/04/15 07:17:08;;;;;;;4.50;2.25;;;;;;;12.08;76.64;100857.09;10291353;28;20475;-75
2022/04/15 07:22:09;;;;;;;3.70;2.60;;;;;;;12.22;76.83;100892.03;10291417;28;20045;-75
2022/04/15 07:27:09;;;;;;;6.03;3.08;;;;;;;12.27;75.93;100898.53;10296347;28;20101;-74
2022/04/15 07:32:10;;;;;;;5.05;2.78;;;;;;;11.56;74.92;100755.31;10298361;28;20053;-74
2022/04/15 07:37:11;;;;;;;4.70;2.63;;;;;;;12.28;73.87;100883.38;10299763;28;20088;-74
2022/04/15 07:42:12;;;;;;;6.32;2.60;;;;;;;11.99;73.64;100825.25;10298488;28;20410;-74
2022/04/15 07:47:13;;;;;;;4.30;2.55;;;;;;;12.45;72.47;100881.56;10298872;28;20050;-74
2022/04/15 07:52:14;;;;;;;4.18;2.47;;;;;;;12.66;71.94;100875.72;10298539;28;20042;-74
2022/04/15 07:57:17;;;;;;;6.90;2.58;;;;;;;13.02;71.86;100884.16;10298257;28;20082;-74
2022/04/15 08:02:17;;;;;;;3.80;2.40;;;;;;;12.94;69.84;100782.81;10298464;28;20069;-75
2022/04/15 08:07:18;;;;;;;3.30;2.33;;;;;;;13.72;68.77;100863.88;10297594;28;20042;-73
2022/04/15 08:12:19;;;;;;;4.38;2.47;;;;;;;13.51;68.11;100797.75;10297219;28;20053;-74
2022/04/15 08:17:20;;;;;;;3.67;2.58;;;;;;;14.10;68.17;100870.97;10298099;28;20042;-74
2022/04/15 08:22:21;;;;;;;3.58;2.20;;;;;;;14.15;66.96;100883.81;10297342;28;20058;-73
2022/04/15 08:27:21;;;;;;;2.80;1.52;;;;;;;13.74;66.86;100884.06;10296907;28;20125;-74
2022/04/15 08:32:22;;;;;;;3.70;1.70;;;;;;;13.49;67.88;100886.03;10296446;28;20042;-74
2022/04/15 08:37:23;;;;;;;2.95;1.75;;;;;;;13.29;67.88;100882.91;10296466;28;20447;-73
2022/04/15 08:42:24;;;;;;;3.42;1.90;;;;;;;12.89;68.28;100827.81;10296816;28;20384;-74
2022/04/15 08:47:28;;;;;;;2.88;1.65;;;;;;;12.87;67.55;100827.19;10295867;28;20130;-74
2022/04/15 08:52:29;;;;;;;3.83;2.08;;;;;;;13.24;68.38;100880.72;10296613;28;20078;-75
2022/04/15 08:57:31;;;;;;;4.20;1.63;;;;;;;13.20;67.88;100847.41;10295446;28;20122;-75
2022/04/15 09:02:37;;;;;;;2.92;1.40;;;;;;;11.76;67.08;100591.66;10296132;28;20047;-75
2022/04/15 09:07:39;;;;;;;2.90;1.10;;;;;;;13.11;66.09;100733.75;10295791;28;20099;-74
2022/04/15 09:12:41;;;;;;;1.90;1.13;;;;;;;14.25;64.37;100857.66;10295931;28;20138;-74
2022/04/15 09:17:49;;;;;;;2.33;1.27;;;;;;;14.51;63.75;100861.78;10295339;28;20129;-73
2022/04/15 09:22:55;;;;;;;4.68;1.40;;;;;;;14.47;63.27;100849.78;10294500;28;20053;-74
2022/04/15 09:27:57;;;;;;;3.38;1.38;;;;;;;14.30;62.73;100815.19;10295021;28;20046;-74
2022/04/15 09:33:02;;;;;;;2.35;1.23;;;;;;;14.68;62.85;100870.50;10294368;28;20378;-74
2022/04/15 09:38:05;;;;;;;3.45;1.50;;;;;;;14.75;62.21;100858.91;10294614;28;20042;-75
2022/04/15 09:43:06;;;;;;;2.80;1.33;;;;;;;14.55;62.63;100858.59;10294750;28;20133;-74
2022/04/15 09:48:09;;;;;;;1.83;0.95;;;;;;;14.48;62.69;100814.00;10294113;28;20034;-76
2022/04/15 09:53:17;;;;;;;2.63;1.40;;;;;;;14.99;61.16;100857.00;10293446;28;20046;-74
2022/04/15 09:58:28;;;;;;;2.65;1.70;;;;;;;14.83;61.36;100812.50;10294258;28;20066;-74
2022/04/15 10:03:29;;;;;;;2.75;1.40;;;;;;;14.97;60.98;100809.00;10293592;28;20063;-74
2022/04/15 10:08:30;;;;;;;1.90;1.10;;;;;;;15.03;61.06;100812.78;10292877;28;20495;-74
2022/04/15 10:13:32;;;;;;;2.45;1.30;;;;;;;15.26;60.88;100844.81;10293232;28;20046;-73
2022/04/15 10:18:34;;;;;;;3.47;1.25;;;;;;;15.00;60.85;100846.09;10293172;28;20047;-75
2022/04/15 10:23:35;;;;;;;2.35;1.17;;;;;;;14.81;61.35;100852.00;10292366;28;20046;-73
2022/04/15 10:28:44;;;;;;;4.15;1.00;;;;;;;14.85;60.78;100853.28;10292855;28;20054;-76
2022/04/15 10:33:49;;;;;;;2.13;1.10;;;;;;;14.04;61.78;100772.84;10293200;28;20047;-74
2022/04/15 10:39:02;;;;;;;2.90;1.10;;;;;;;14.52;61.50;100869.66;10292859;28;20395;-74
2022/04/15 10:44:04;;;;;;;2.05;0.85;;;;;;;13.19;61.83;100660.81;10292620;28;20560;-75
2022/04/15 10:49:26;;;;;;;3.65;0.98;;;;;;;14.16;62.63;100832.84;10292207;28;20051;-74
2022/04/15 10:54:36;;;;;;;2.10;1.08;;;;;;;14.10;62.47;100860.28;10291337;28;20034;-74
2022/04/15 11:04:58;;;;;;;2.47;1.15;;;;;;;14.04;63.26;100854.81;10291769;28;20101;-73
2022/04/15 11:09:59;;;;;;;2.28;1.13;;;;;;;13.98;63.28;100826.97;10291624;28;20491;-73
2022/04/15 11:15:00;;;;;;;2.80;1.27;;;;;;;13.83;63.71;100826.09;10290878;28;20042;-73
2022/04/15 11:20:05;;;;;;;2.58;1.30;;;;;;;14.08;64.19;100858.78;10291433;28;20046;-75
2022/04/15 11:25:08;;;;;;;4.28;1.30;;;;;;;14.18;64.61;100861.22;10291645;28;20128;-74
2022/04/15 11:30:16;;;;;;;3.08;1.08;;;;;;;14.06;64.31;100856.31;10291448;28;20121;-74
2022/04/15 11:35:34;;;;;;;2.13;1.15;;;;;;;13.79;65.45;100843.44;10290764;28;20107;-73
2022/04/15 11:40:36;;;;;;;2.50;1.45;;;;;;;12.99;66.17;100730.63;10290581;28;20053;-74
2022/04/15 11:45:41;;;;;;;3.15;1.45;;;;;;;12.34;66.73;100627.78;10290455;28;20170;-74
2022/04/15 11:50:43;;;;;;;3.72;1.42;;;;;;;13.93;66.39;100854.22;10290425;28;20042;-74
2022/04/15 11:55:47;;;;;;;2.42;1.20;;;;;;;13.38;65.29;100715.59;10290652;28;20042;-75
2022/04/15 12:00:55;;;;;;;1.98;1.08;;;;;;;14.74;64.31;100867.09;10290606;28;20061;-76
2022/04/15 12:05:59;;;;;;;2.10;1.20;;;;;;;14.94;63.51;100832.63;10290598;28;20042;-73
2022/04/15 12:11:02;;;;;;;2.97;1.20;;;;;;;15.00;63.22;100846.09;10290700;28;20042;-72
2022/04/15 12:16:04;;;;;;;2.65;1.20;;;;;;;14.74;63.29;100859.91;10297004;28;20053;-74
2022/04/15 12:21:05;;;;;;;4.70;1.25;;;;;;;14.72;63.77;100842.41;10296145;28;20507;-73
2022/04/15 12:26:09;;;;;;;3.15;1.10;;;;;;;14.61;63.62;100832.97;10297762;28;20049;-74
2022/04/15 12:31:32;;;;;;;3.07;1.50;;;;;;;14.57;63.86;100842.38;10296679;28;20039;-73
2022/04/15 12:36:43;;;;;;;2.78;1.40;;;;;;;14.46;63.85;100840.13;10297037;28;20074;-72
2022/04/15 12:41:48;;;;;;;2.47;1.45;;;;;;;13.78;64.20;100733.16;10295041;28;20042;-74
2022/04/15 13:47:23;;;;;;;1.83;1.02;;;;;;;13.94;66.22;100868.41;11112632;23;20089;-74
2022/04/15 13:57:43;;;;;;;2.15;1.15;;;;;;;13.01;66.51;100757.13;10172113;29;20047;-74
2022/04/15 14:02:45;;;;;;;1.85;1.00;;;;;;;13.61;67.01;100881.09;10173690;29;20051;-74
2022/04/15 14:07:46;;;;;;;2.15;1.25;;;;;;;13.48;67.15;100852.31;10173537;29;20070;-74
2022/04/15 14:12:48;;;;;;;2.40;1.30;;;;;;;13.29;67.31;100853.56;10159888;29;20055;-74
2022/04/15 14:17:50;;;;;;;4.88;1.60;;;;;;;13.50;67.72;100876.16;10170148;29;20047;-73
2022/04/15 14:22:51;;;;;;;12.45;2.28;;;;;;;13.36;68.03;100880.38;10170901;29;20044;-74
2022/04/15 14:27:52;;;;;;;13.88;2.83;;;;;;;12.57;68.18;100760.28;10171874;29;20044;-75
2022/04/15 14:32:58;;;;;;;2.80;1.73;;;;;;;12.99;68.03;100823.97;10172163;29;20051;-75
2022/04/15 14:37:59;;;;;;;5.32;2.60;;;;;;;13.00;68.09;100822.13;10170366;29;20083;-76
2022/04/15 14:43:00;;;;;;;6.43;3.67;;;;;;;12.91;68.71;100817.84;10168692;29;20075;-75
2022/04/15 14:48:01;;;;;;;3.42;2.10;;;;;;;13.28;68.49;100859.06;10178702;29;20144;-76
2022/04/15 14:53:02;;;;;;;3.83;2.15;;;;;;;13.18;68.71;100854.75;10174630;29;20055;-75
2022/04/15 14:58:04;;;;;;;3.95;1.95;;;;;;;13.49;68.94;100904.69;10158582;29;20043;-75
2022/04/15 15:03:06;;;;;;;3.03;1.98;;;;;;;13.43;69.16;100900.03;10179662;29;20043;-75
2022/04/15 15:08:07;;;;;;;6.60;2.22;;;;;;;12.92;69.83;100840.81;10176744;29;20055;-74
2022/04/15 15:13:08;;;;;;;7.75;2.35;;;;;;;12.29;70.43;100742.03;10177917;29;20044;-75
2022/04/15 15:18:09;;;;;;;19.50;2.75;;;;;;;12.29;71.21;100754.50;10182242;29;20054;-74
2022/04/15 15:23:09;;;;;;;13.40;2.70;;;;;;;13.08;71.70;100886.13;10181462;29;20052;-75
2022/04/15 15:33:31;;;;;;;4.55;2.75;;;;;;;12.79;72.95;100905.34;10179061;29;20503;-75
2022/04/15 15:38:31;;;;;;;4.68;2.83;;;;;;;12.34;73.07;100869.41;10180582;29;20104;-74
2022/04/15 15:43:32;;;;;;;17.75;4.40;;;;;;;11.93;73.83;100820.59;10180843;29;20474;-75
2022/04/15 15:48:33;;;;;;;6.85;3.20;;;;;;;11.86;74.32;100817.78;10185884;29;20100;-75
2022/04/15 15:53:34;;;;;;;6.70;3.30;;;;;;;12.45;75.19;100926.88;10190981;29;20128;-75
2022/04/15 15:58:35;;;;;;;5.75;3.40;;;;;;;12.24;75.67;100925.50;10178028;29;20070;-76
2022/04/15 16:03:35;;;;;;;6.20;3.75;;;;;;;11.90;75.86;100916.78;10174045;29;20143;-78
2022/04/15 16:08:36;;;;;;;10.02;4.57;;;;;;;11.12;76.00;100824.69;10186747;29;20039;-79
2022/04/15 16:13:38;;;;;;;7.97;4.65;;;;;;;10.90;76.93;100839.38;10181783;29;20139;-80
2022/04/15 16:18:39;;;;;;;9.02;5.20;;;;;;;11.41;77.33;100941.34;10185802;29;20052;-75
2022/04/15 16:23:40;;;;;;;7.93;5.70;;;;;;;10.93;77.33;100873.63;10176081;29;20058;-74
2022/04/15 16:28:41;;;;;;;7.43;5.20;;;;;;;11.29;77.75;100956.75;10172777;29;20452;-74
2022/04/15 16:33:42;;;;;;;16.33;10.23;;;;;;;11.36;78.61;101002.16;10175071;29;20040;-74
2022/04/15 16:38:43;;;;;;;10.68;6.30;;;;;;;11.25;78.34;101024.56;10176905;29;20463;-75
2022/04/15 16:43:45;;;;;;;7.97;6.30;;;;;;;10.88;79.45;100976.91;10175650;29;20139;-74
2022/04/15 16:48:45;;;;;;;9.00;7.43;;;;;;;10.17;80.25;100887.44;10173586;29;20528;-75
2022/04/15 16:53:46;;;;;;;18.60;9.85;;;;;;;10.72;80.58;101020.13;10174904;29;20135;-76
2022/04/15 16:58:49;;;;;;;14.15;8.15;;;;;;;10.46;80.94;101020.88;10174879;29;20487;-74
2022/04/15 17:03:51;;;;;;;8.27;6.90;;;;;;;9.64;81.20;100915.59;10175581;29;20051;-75
2022/04/15 17:08:51;;;;;;;19.77;8.02;;;;;;;9.76;81.71;100970.13;10154871;29;20041;-75
2022/04/15 17:13:52;;;;;;;10.18;6.97;;;;;;;9.06;82.58;100900.78;10159935;29;20063;-79
2022/04/15 17:18:53;;;;;;;18.52;7.68;;;;;;;9.09;83.61;100931.44;10160059;29;20559;-74
2022/04/15 17:23:54;;;;;;;11.00;7.13;;;;;;;8.91;83.79;100937.50;10173678;29;20516;-75
2022/04/15 17:28:55;;;;;;;21.02;11.57;;;;;;;8.67;84.43;100919.44;10176156;29;20142;-75
2022/04/15 17:33:55;;;;;;;17.23;11.27;;;;;;;8.98;85.01;100979.34;10175721;29;20055;-74
2022/04/15 17:38:56;;;;;;;54.67;11.38;;;;;;;8.72;85.57;100955.22;10173546;29;20048;-74
2022/04/15 17:43:57;;;;;;;17.42;9.13;;;;;;;8.42;86.14;100938.53;10173987;29;20047;-75
2022/04/15 17:48:58;;;;;;;13.52;10.52;;;;;;;8.26;86.11;100919.69;10172409;29;20060;-75
2022/04/15 17:53:59;;;;;;;15.65;11.13;;;;;;;8.22;86.38;100919.94;10168455;29;20055;-76
2022/04/15 17:59:00;;;;;;;13.48;10.20;;;;;;;8.09;87.01;100911.44;10172928;29;20043;-75
2022/04/15 18:04:02;;;;;;;13.38;9.40;;;;;;;8.50;87.66;100982.84;10167863;29;20048;-76
2022/04/15 18:09:03;;;;;;;13.52;8.73;;;;;;;8.58;87.81;101001.50;10140703;29;20058;-76
2022/04/15 18:14:04;;;;;;;15.98;10.30;;;;;;;8.41;88.06;101006.53;10167185;29;20134;-75
2022/04/15 18:19:05;;;;;;;12.43;8.90;;;;;;;8.30;88.12;101014.56;10174897;29;20051;-74
2022/04/15 18:24:06;;;;;;;12.30;8.52;;;;;;;7.98;87.26;100972.41;10210870;29;20051;-76
2022/04/15 18:29:07;;;;;;;14.02;7.88;;;;;;;7.76;87.26;100947.88;10213363;29;20039;-75
2022/04/15 18:34:07;;;;;;;9.70;6.43;;;;;;;7.95;86.88;100999.97;10188044;29;20413;-75
2022/04/15 18:39:08;;;;;;;10.82;5.43;;;;;;;7.69;86.79;100980.28;10173556;29;20059;-74
2022/04/15 18:44:10;;;;;;;10.20;6.25;;;;;;;7.51;87.18;101002.06;10172917;29;20044;-74
2022/04/15 18:54:32;;;;;;;23.65;18.77;;;;;;;6.56;87.49;100870.13;10173336;29;20046;-76
2022/04/15 18:59:33;;;;;;;20.88;12.32;;;;;;;6.64;88.80;100911.69;10173236;29;20075;-75
2022/04/15 19:04:33;;;;;;;12.52;9.63;;;;;;;6.85;89.20;100989.16;10149363;29;20044;-75
2022/04/15 19:09:36;;;;;;;10.13;8.10;;;;;;;7.12;89.63;101018.63;10167314;29;20055;-75
2022/04/15 19:14:36;;;;;;;15.48;8.43;;;;;;;7.19;89.35;101025.09;10155970;29;20048;-76
2022/04/15 19:19:39;;;;;;;28.85;7.82;;;;;;;5.64;88.78;100766.94;10171788;29;20134;-76
2022/04/15 19:24:41;;;;;;;16.85;8.50;;;;;;;5.48;88.45;100756.84;10143165;29;20056;-76
2022/04/15 19:29:42;;;;;;;10.45;6.35;;;;;;;6.77;88.40;100988.94;10171973;29;20040;-76
2022/04/15 19:34:42;;;;;;;8.02;6.10;;;;;;;6.45;88.00;101004.78;10179867;29;20040;-75
2022/04/15 19:39:43;;;;;;;12.38;6.60;;;;;;;6.03;88.41;100978.28;10181528;29;20103;-74
2022/04/15 19:44:44;;;;;;;11.93;8.32;;;;;;;6.00;89.41;100975.06;10179451;29;20051;-74
2022/04/15 19:49:45;;;;;;;12.90;8.07;;;;;;;6.30;89.49;101008.69;10180536;29;20048;-75
2022/04/15 19:54:46;;;;;;;14.60;8.45;;;;;;;6.26;90.12;101005.44;10179715;29;20052;-74
2022/04/15 20:05:07;;;;;;;12.20;8.82;;;;;;;6.21;89.12;101038.44;10177142;29;20146;-75
2022/04/15 20:10:08;;;;;;;10.55;7.95;;;;;;;5.90;89.31;100990.75;10162252;29;20139;-75
2022/04/15 20:15:09;;;;;;;15.38;9.15;;;;;;;5.87;89.61;100991.00;10178513;29;20508;-74
2022/04/15 20:20:10;;;;;;;11.35;8.00;;;;;;;5.81;89.56;100999.38;10179061;29;20044;-74
2022/04/15 20:25:11;;;;;;;12.32;7.65;;;;;;;5.75;89.18;101013.88;10178837;29;20480;-75
2022/04/15 20:30:13;;;;;;;14.25;8.48;;;;;;;5.88;89.55;101046.22;10161441;29;20085;-74
2022/04/15 20:35:14;;;;;;;12.43;8.52;;;;;;;5.68;89.91;101012.66;10176592;29;20075;-75
2022/04/15 20:40:16;;;;;;;12.25;9.10;;;;;;;4.88;90.09;100874.00;10177566;29;20140;-74
2022/04/15 20:45:20;;;;;;;11.52;9.05;;;;;;;5.74;90.98;100991.09;10177564;29;20148;-74
2022/04/15 20:50:21;;;;;;;16.13;10.65;;;;;;;5.14;90.10;100881.66;10160538;29;20079;-74
2022/04/15 20:55:23;;;;;;;16.83;9.23;;;;;;;5.93;90.54;100998.44;10178148;29;20083;-74
2022/04/15 21:00:24;;;;;;;15.65;10.40;;;;;;;5.90;90.10;100983.66;10177654;29;20135;-75
2022/04/15 21:05:25;;;;;;;13.13;10.52;;;;;;;6.26;91.01;101028.38;10177374;29;20046;-75
2022/04/15 21:10:26;;;;;;;14.50;11.20;;;;;;;5.92;91.20;100976.47;10176551;29;20128;-75
2022/04/15 21:15:27;;;;;;;15.55;8.80;;;;;;;5.71;91.01;100973.75;10177063;29;20036;-75
2022/04/15 21:20:29;;;;;;;12.85;10.02;;;;;;;5.67;90.41;101011.00;10176161;29;20036;-74
2022/04/15 21:25:30;;;;;;;11.52;8.85;;;;;;;5.63;91.19;101012.22;10177028;29;20094;-74
2022/04/15 21:30:31;;;;;;;12.30;9.30;;;;;;;5.67;91.52;101009.19;10176260;29;20044;-75
2022/04/15 21:35:33;;;;;;;15.43;10.93;;;;;;;5.64;91.20;101013.88;10175415;29;20052;-75
2022/04/15 21:40:34;;;;;;;12.98;9.88;;;;;;;5.30;91.54;100971.72;10175986;29;20040;-75
2022/04/15 21:45:36;;;;;;;14.38;9.88;;;;;;;5.55;91.46;101001.41;10176326;29;20077;-75
2022/04/15 21:55:56;;;;;;;13.35;10.88;;;;;;;5.01;91.69;100908.94;10175567;29;20538;-75
2022/04/15 22:01:01;;;;;;;12.60;9.65;;;;;;;4.58;91.44;100851.69;10174365;29;20079;-75
2022/04/15 22:06:02;;;;;;;13.38;9.85;;;;;;;5.22;91.43;100958.28;10174367;29;20044;-75
2022/04/15 22:11:04;;;;;;;13.10;10.23;;;;;;;5.34;91.70;100981.03;10174447;29;20130;-75
2022/04/15 22:16:06;;;;;;;16.42;10.85;;;;;;;5.39;91.73;100983.34;10175043;29;20144;-75
2022/04/15 22:21:07;;;;;;;14.00;10.75;;;;;;;4.95;91.38;100905.94;10173782;29;20052;-75
2022/04/15 22:26:08;;;;;;;13.50;9.95;;;;;;;5.16;91.46;100940.31;10174292;29;20460;-75
2022/04/15 22:31:09;;;;;;;14.70;10.20;;;;;;;5.20;91.79;100954.91;10173529;29;20103;-74
2022/04/15 22:36:11;;;;;;;11.98;9.98;;;;;;;4.49;91.16;100848.94;10173680;29;20127;-75
2022/04/15 22:41:12;;;;;;;14.38;11.20;;;;;;;5.15;91.87;100951.81;10173616;29;20612;-75
2022/04/15 22:46:14;;;;;;;14.07;10.85;;;;;;;5.00;92.48;100917.81;10172952;29;20114;-75
2022/04/15 22:51:14;;;;;;;15.95;9.82;;;;;;;4.71;91.78;100900.75;10174577;29;20080;-75
2022/04/15 23:01:34;;;;;;;15.68;10.95;;;;;;;4.03;91.42;100782.22;10172823;29;20099;-75
2022/04/15 23:06:36;;;;;;;13.10;9.13;;;;;;;4.29;91.85;100827.59;10173191;29;20036;-75
2022/04/15 23:11:37;;;;;;;17.60;10.57;;;;;;;4.85;91.11;100950.56;10172433;29;20047;-75
2022/04/15 23:16:38;;;;;;;14.32;10.68;;;;;;;4.78;91.54;100938.81;10173494;29;20529;-75
2022/04/15 23:21:39;;;;;;;19.33;11.75;;;;;;;3.86;90.79;100785.28;10172220;29;20056;-75
2022/04/15 23:26:40;;;;;;;27.98;17.10;;;;;;;4.51;90.89;100910.97;10173520;29;20040;-75
2022/04/15 23:31:40;;;;;;;31.42;17.83;;;;;;;3.76;91.57;100800.03;10172628;29;20047;-75
2022/04/15 23:36:41;;;;;;;23.95;15.68;;;;;;;3.79;91.28;100813.78;10172070;29;20069;-75
2022/04/15 23:41:42;;;;;;;28.38;18.23;;;;;;;3.81;90.87;100842.59;10171984;29;20107;-75
2022/04/15 23:52:02;;;;;;;31.52;17.23;;;;;;;2.88;91.08;100717.09;10172527;29;20043;-75
2022/04/15 23:57:03;;;;;;;26.10;16.98;;;;;;;3.31;90.96;100824.28;10173582;29;20116;-75
